createdAt,value
2023-02-17T00:01:34.727Z,100930.94
2023-02-17T00:03:37.753Z,100933.59
2023-02-17T00:05:41.313Z,100934.56
2023-02-17T00:07:45.928Z,100924.91
2023-02-17T00:09:49.277Z,100927.56
2023-02-17T00:11:52.824Z,100935.63
2023-02-17T00:13:56.655Z,100921.50
2023-02-17T00:16:00.296Z,100933.09
2023-02-17T00:18:03.674Z,100925.97
2023-02-17T00:20:08.424Z,100910.88
2023-02-17T00:22:11.677Z,100912.78
2023-02-17T00:24:16.355Z,100903.13
2023-02-17T00:26:20.628Z,100901.41
2023-02-17T00:28:24.147Z,100895.38
2023-02-17T00:30:27.442Z,100889.31
2023-02-17T00:32:30.794Z,100871.69
2023-02-17T00:34:34.651Z,100873.50
2023-02-17T00:36:38.547Z,100879.78
2023-02-17T00:38:41.901Z,100879.66
2023-02-17T00:40:46.613Z,100875.19
2023-02-17T00:42:50.130Z,100880.41
2023-02-17T00:44:55.522Z,100877.75
2023-02-17T00:46:58.760Z,100882.09
2023-02-17T00:49:02.053Z,100879.44
2023-02-17T00:51:05.700Z,100883.69
2023-02-17T00:53:11.001Z,100887.31
2023-02-17T00:55:17.205Z,100893.44
2023-02-17T00:57:21.815Z,100886.25
2023-02-17T00:59:25.043Z,100874.78
2023-02-17T01:01:28.328Z,100869.47
2023-02-17T01:03:31.980Z,100887.97
2023-02-17T01:05:41.482Z,100897.59
2023-02-17T01:07:44.848Z,100882.66
2023-02-17T01:09:49.054Z,100891.34
2023-02-17T01:11:52.416Z,100886.03
2023-02-17T01:13:58.132Z,100877.97
2023-02-17T01:16:03.231Z,100878.84
2023-02-17T01:18:06.930Z,100878.72
2023-02-17T01:20:10.691Z,100871.59
2023-02-17T01:22:15.260Z,100868.00
2023-02-17T01:24:18.487Z,100860.97
2023-02-17T01:26:23.760Z,100869.69
2023-02-17T01:28:27.025Z,100864.38
2023-02-17T01:30:31.770Z,100854.59
2023-02-17T01:32:34.970Z,100846.75
2023-02-17T01:34:39.457Z,100830.94
2023-02-17T01:36:42.919Z,100833.69
2023-02-17T01:38:47.594Z,100825.75
2023-02-17T01:40:51.031Z,100817.78
2023-02-17T01:42:57.600Z,100819.56
2023-02-17T01:45:38.826Z,100831.06
2023-02-17T01:47:42.482Z,100827.63
2023-02-17T01:49:49.605Z,100831.22
2023-02-17T01:51:56.889Z,100823.19
2023-02-17T01:54:04.892Z,100829.34
2023-02-17T01:56:09.756Z,100834.66
2023-02-17T01:58:18.173Z,100834.53
2023-02-17T02:00:24.563Z,100834.44
2023-02-17T02:02:32.213Z,100822.03
2023-02-17T02:04:39.254Z,100828.06
2023-02-17T02:06:45.291Z,100823.69
2023-02-17T02:08:55.177Z,100820.22
2023-02-17T02:10:58.418Z,100804.28
2023-02-17T02:13:03.170Z,100819.25
2023-02-17T02:15:10.527Z,100796.31
2023-02-17T02:17:21.421Z,100793.66
2023-02-17T02:19:58.730Z,100798.13
2023-02-17T02:22:36.175Z,100785.81
2023-02-17T02:24:53.205Z,100800.03
2023-02-17T02:27:21.503Z,100799.19
2023-02-17T02:30:11.801Z,100810.75
2023-02-17T02:32:49.343Z,100783.25
2023-02-17T02:34:59.175Z,100770.94
2023-02-17T02:37:10.618Z,100787.72
2023-02-17T02:39:15.350Z,100769.25
2023-02-17T02:41:22.432Z,100766.47
2023-02-17T02:43:27.517Z,100761.06
2023-02-17T02:45:31.362Z,100766.28
2023-02-17T02:47:45.236Z,100756.50
2023-02-17T02:49:50.813Z,100758.19
2023-02-17T02:52:00.283Z,100768.81
2023-02-17T02:54:23.215Z,100761.59
2023-02-17T02:56:39.104Z,100741.22
2023-02-17T02:59:00.505Z,100739.41
2023-02-17T03:01:14.276Z,100721.75
2023-02-17T03:03:27.269Z,100724.41
2023-02-17T03:05:36.276Z,100714.66
2023-02-17T03:07:44.506Z,100712.00
2023-02-17T03:09:50.541Z,100715.72
2023-02-17T03:11:56.175Z,100719.34
2023-02-17T03:14:02.706Z,100721.22
2023-02-17T03:16:07.102Z,100709.66
2023-02-17T03:18:10.550Z,100696.38
2023-02-17T03:20:18.494Z,100694.69
2023-02-17T03:22:24.888Z,100699.03
2023-02-17T03:24:28.344Z,100697.97
2023-02-17T03:26:31.610Z,100689.78
2023-02-17T03:28:35.000Z,100691.38
2023-02-17T03:30:38.881Z,100693.19
2023-02-17T03:32:42.881Z,100682.56
2023-02-17T03:34:46.141Z,100690.66
2023-02-17T03:36:50.858Z,100681.94
2023-02-17T03:38:54.288Z,100685.53
2023-02-17T03:40:57.495Z,100697.88
2023-02-17T03:43:00.828Z,100709.34
2023-02-17T03:45:04.519Z,100711.03
2023-02-17T03:47:09.343Z,100717.09
2023-02-17T03:49:13.139Z,100720.47
2023-02-17T03:51:18.386Z,100709.78
2023-02-17T03:53:24.585Z,100727.25
2023-02-17T03:55:27.936Z,100720.06
2023-02-17T03:57:31.985Z,100727.06
2023-02-17T03:59:35.412Z,100736.09
2023-02-17T04:01:38.967Z,100734.38
2023-02-17T04:03:43.223Z,100750.53
2023-02-17T04:05:46.595Z,100752.44
2023-02-17T04:07:49.896Z,100752.44
2023-02-17T04:09:54.539Z,100750.75
2023-02-17T04:11:57.907Z,100758.69
2023-02-17T04:14:01.124Z,100765.09
2023-02-17T04:16:05.803Z,100768.81
2023-02-17T04:18:09.032Z,100753.09
2023-02-17T04:20:14.236Z,100765.63
2023-02-17T04:22:17.460Z,100756.91
2023-02-17T04:24:20.656Z,100771.28
2023-02-17T04:26:25.359Z,100767.75
2023-02-17T04:28:28.653Z,100766.03
2023-02-17T04:30:32.124Z,100789.22
2023-02-17T04:32:35.527Z,100800.78
2023-02-17T04:34:38.862Z,100808.72
2023-02-17T04:36:44.239Z,100814.03
2023-02-17T04:38:47.799Z,100809.59
2023-02-17T04:40:50.010Z,100803.44
2023-02-17T04:42:54.670Z,100804.38
2023-02-17T04:44:57.944Z,100806.19
2023-02-17T04:47:01.129Z,100818.50
2023-02-17T04:49:04.525Z,100823.06
2023-02-17T04:51:07.889Z,100810.84
2023-02-17T04:53:11.180Z,100828.59
2023-02-17T04:55:14.475Z,100835.81
2023-02-17T04:57:17.875Z,100839.31
2023-02-17T04:59:24.682Z,100834.13
2023-02-17T05:01:28.989Z,100843.84
2023-02-17T05:03:32.489Z,100838.56
2023-02-17T05:05:35.936Z,100842.06
2023-02-17T05:07:39.123Z,100839.53
2023-02-17T05:09:42.418Z,100836.88
2023-02-17T05:11:45.723Z,100842.19
2023-02-17T05:13:48.962Z,100842.19
2023-02-17T05:15:53.645Z,100848.22
2023-02-17T05:17:56.937Z,100844.63
2023-02-17T05:20:00.238Z,100836.56
2023-02-17T05:22:03.446Z,100850.66
2023-02-17T05:24:07.168Z,100861.09
2023-02-17T05:26:10.738Z,100862.69
2023-02-17T05:28:14.029Z,100853.75
2023-02-17T05:30:17.609Z,100841.22
2023-02-17T05:32:23.448Z,100852.69
2023-02-17T05:34:26.668Z,100860.53
2023-02-17T05:36:30.032Z,100873.72
2023-02-17T05:38:33.303Z,100863.97
2023-02-17T05:40:36.536Z,100861.41
2023-02-17T05:42:39.725Z,100866.84
2023-02-17T05:44:42.932Z,100889.97
2023-02-17T05:46:46.249Z,100855.56
2023-02-17T05:48:50.864Z,100869.06
2023-02-17T05:50:54.082Z,100873.59
2023-02-17T05:52:57.272Z,100871.16
2023-02-17T05:55:00.588Z,100879.22
2023-02-17T05:57:03.808Z,100877.53
2023-02-17T05:59:07.023Z,100878.34
2023-02-17T06:01:10.527Z,100879.44
2023-02-17T06:03:13.766Z,100878.56
2023-02-17T06:05:18.558Z,100885.81
2023-02-17T06:07:21.814Z,100882.16
2023-02-17T06:09:25.035Z,100887.47
2023-02-17T06:11:28.269Z,100890.91
2023-02-17T06:13:31.491Z,100882.81
2023-02-17T06:15:35.009Z,100873.91
2023-02-17T06:17:38.350Z,100899.41
2023-02-17T06:19:41.696Z,100882.44
2023-02-17T06:21:46.353Z,100898.25
2023-02-17T06:23:49.675Z,100900.03
2023-02-17T06:25:52.894Z,100885.16
2023-02-17T06:27:56.149Z,100897.69
2023-02-17T06:29:59.410Z,100903.94
2023-02-17T06:32:02.744Z,100909.47
2023-02-17T06:34:06.753Z,100912.34
2023-02-17T06:36:10.305Z,100926.66
2023-02-17T06:38:14.934Z,100944.34
2023-02-17T06:40:18.823Z,100955.19
2023-02-17T06:42:22.051Z,100953.47
2023-02-17T06:44:25.255Z,100949.16
2023-02-17T06:46:28.538Z,100961.63
2023-02-17T06:48:33.224Z,100961.75
2023-02-17T06:50:36.761Z,100971.69
2023-02-17T06:52:40.475Z,100972.66
2023-02-17T06:54:47.277Z,100985.28
2023-02-17T06:56:50.570Z,100982.72
2023-02-17T06:58:53.865Z,100983.66
2023-02-17T07:00:57.111Z,100995.22
2023-02-17T07:03:00.466Z,100992.78
2023-02-17T07:05:03.794Z,100998.06
2023-02-17T07:07:07.127Z,101007.94
2023-02-17T07:09:11.657Z,100989.38
2023-02-17T07:11:16.951Z,101008.78
2023-02-17T07:13:20.229Z,101007.06
2023-02-17T07:15:23.441Z,101025.53
2023-02-17T07:17:27.006Z,101029.91
2023-02-17T07:19:30.540Z,101037.88
2023-02-17T07:21:34.008Z,101044.00
2023-02-17T07:23:38.492Z,101050.19
2023-02-17T07:25:41.725Z,101070.53
2023-02-17T07:27:46.328Z,101067.81
2023-02-17T07:29:49.546Z,101071.41
2023-02-17T07:31:53.089Z,101090.91
2023-02-17T07:33:56.395Z,101090.91
2023-02-17T07:36:00.128Z,101098.03
2023-02-17T07:38:03.980Z,101091.00
2023-02-17T07:40:08.850Z,101094.59
2023-02-17T07:42:12.131Z,101093.00
2023-02-17T07:44:17.073Z,101108.91
2023-02-17T07:46:21.515Z,101119.63
2023-02-17T07:48:25.321Z,101121.59
2023-02-17T07:50:28.924Z,101126.16
2023-02-17T07:52:32.757Z,101132.59
2023-02-17T07:54:36.287Z,101127.66
2023-02-17T07:56:39.822Z,101111.00
2023-02-17T07:58:44.906Z,101128.03
2023-02-17T08:00:50.614Z,101129.19
2023-02-17T08:02:54.297Z,101138.16
2023-02-17T08:04:57.866Z,101139.19
2023-02-17T08:07:01.431Z,101148.97
2023-02-17T08:09:22.810Z,101161.34
2023-02-17T08:11:45.126Z,101166.66
2023-02-17T08:13:49.167Z,101166.75
2023-02-17T08:15:54.341Z,101177.25
2023-02-17T08:17:58.719Z,101176.22
2023-02-17T08:20:08.582Z,101179.56
2023-02-17T08:22:13.088Z,101192.72
2023-02-17T08:24:17.524Z,101185.59
2023-02-17T08:26:22.052Z,101187.31
2023-02-17T08:28:25.633Z,101195.38
2023-02-17T08:30:29.352Z,101195.38
2023-02-17T08:32:34.457Z,101198.22
2023-02-17T08:34:37.752Z,101212.41
2023-02-17T12:34:04.064Z,101573.31
2023-02-17T12:36:12.428Z,101574.66
2023-02-17T12:38:19.109Z,101571.41
2023-02-17T12:40:34.486Z,101578.44
2023-02-17T12:42:42.973Z,101569.53
2023-02-17T12:44:49.155Z,101573.69
2023-02-17T12:46:55.935Z,101566.38
2023-02-17T12:49:07.699Z,101569.53
2023-02-17T12:51:15.592Z,101551.41
2023-02-17T12:53:26.868Z,101554.75
2023-02-17T12:55:39.403Z,101552.94
2023-02-17T12:57:53.650Z,101551.78
2023-02-17T13:00:00.274Z,101549.00
2023-02-17T13:02:07.402Z,101549.00
2023-02-17T13:04:18.724Z,101552.56
2023-02-17T13:06:29.662Z,101557.00
2023-02-17T13:08:40.167Z,101556.25
2023-02-17T13:10:44.026Z,101551.25
2023-02-17T13:12:58.392Z,101545.56
2023-02-17T13:15:04.916Z,101527.50
2023-02-17T13:17:22.858Z,101537.59
2023-02-17T13:19:32.186Z,101550.13
2023-02-17T13:21:36.241Z,101540.63
2023-02-17T13:23:42.085Z,101542.66
2023-02-17T13:25:45.893Z,101541.78
2023-02-17T13:27:49.600Z,101538.06
2023-02-17T13:30:01.780Z,101544.16
2023-02-17T13:32:08.254Z,101543.97
2023-02-17T13:34:11.980Z,101549.00
2023-02-17T13:36:23.522Z,101550.69
2023-02-17T13:38:29.158Z,101546.34
2023-02-17T13:40:38.917Z,101550.69
2023-02-17T13:42:45.568Z,101546.97
2023-02-17T13:44:50.416Z,101529.97
2023-02-17T13:46:56.587Z,101537.75
2023-02-17T13:49:03.151Z,101535.56
2023-02-17T13:51:09.972Z,101542.19
2023-02-17T13:53:35.444Z,101537.53
2023-02-17T13:55:42.038Z,101541.91
2023-02-17T13:57:46.391Z,101539.25
2023-02-17T13:59:50.112Z,101531.16
2023-02-17T14:01:55.645Z,101530.09
2023-02-17T14:04:00.448Z,101530.94
2023-02-17T14:06:05.326Z,101518.88
2023-02-17T14:08:15.683Z,101517.28
2023-02-17T14:10:26.112Z,101513.00
2023-02-17T14:12:31.169Z,101508.84
2023-02-17T14:14:37.836Z,101511.69
2023-02-17T14:16:44.279Z,101513.78
2023-02-17T14:18:47.950Z,101516.78
2023-02-17T14:21:01.878Z,101509.16
2023-02-17T14:23:09.092Z,101503.09
2023-02-17T14:25:17.410Z,101499.50
2023-02-17T14:27:22.325Z,101501.19
2023-02-17T14:29:25.682Z,101500.34
2023-02-17T14:31:29.985Z,101502.91
2023-02-17T14:33:33.839Z,101498.44
2023-02-17T14:35:39.648Z,101503.78
2023-02-17T14:37:44.337Z,101498.44
2023-02-17T14:39:48.149Z,101494.06
2023-02-17T14:41:51.653Z,101494.81
2023-02-17T14:43:57.116Z,101501.84
2023-02-17T14:46:01.496Z,101501.00
2023-02-17T14:48:05.752Z,101498.25
2023-02-17T14:50:10.615Z,101493.88
2023-02-17T14:52:20.817Z,101483.44
2023-02-17T14:54:27.096Z,101483.53
2023-02-17T14:56:36.774Z,101488.84
2023-02-17T14:58:41.451Z,101486.25
2023-02-17T15:00:46.814Z,101489.91
2023-02-17T15:02:53.248Z,101488.09
2023-02-17T15:04:57.780Z,101482.03
2023-02-17T15:07:02.159Z,101490.94
2023-02-17T15:09:06.700Z,101488.38
2023-02-17T15:11:19.156Z,101483.25
2023-02-17T15:13:24.087Z,101486.97
2023-02-17T15:15:30.148Z,101487.94
2023-02-17T15:17:35.865Z,101485.47
2023-02-17T15:19:41.384Z,101475.88
2023-02-17T15:21:47.698Z,101482.13
2023-02-17T15:23:52.217Z,101473.22
2023-02-17T15:25:57.901Z,101467.03
2023-02-17T15:28:03.191Z,101466.19
2023-02-17T15:30:09.372Z,101463.53
2023-02-17T15:32:19.620Z,101460.03
2023-02-17T15:34:31.246Z,101465.34
2023-02-17T15:36:35.584Z,101460.84
2023-02-17T15:38:40.021Z,101459.91
2023-02-17T15:40:44.270Z,101452.88
2023-02-17T15:42:54.678Z,101448.50
2023-02-17T15:44:58.862Z,101452.03
2023-02-17T15:47:03.269Z,101451.06
2023-02-17T15:49:11.645Z,101446.63
2023-02-17T15:51:19.640Z,101441.28
2023-02-17T15:53:24.157Z,101438.75
2023-02-17T15:55:29.473Z,101437.75
2023-02-17T15:57:33.997Z,101439.56
2023-02-17T15:59:38.570Z,101430.81
2023-02-17T16:01:42.753Z,101433.50
2023-02-17T16:03:47.619Z,101431.81
2023-02-17T16:05:51.698Z,101431.91
2023-02-17T16:07:57.770Z,101420.41
2023-02-17T16:10:02.120Z,101422.31
2023-02-17T16:12:06.924Z,101417.00
2023-02-17T16:14:20.174Z,101415.28
2023-02-17T16:16:28.815Z,101424.22
2023-02-17T16:18:33.526Z,101417.28
2023-02-17T16:20:37.864Z,101415.66
2023-02-17T16:22:42.130Z,101420.97
2023-02-17T16:24:47.695Z,101419.31
2023-02-17T16:26:51.304Z,101413.31
2023-02-17T16:28:55.238Z,101411.91
2023-02-17T16:30:58.953Z,101404.03
2023-02-17T16:33:11.047Z,101412.19
2023-02-17T16:35:16.224Z,101411.53
2023-02-17T16:37:42.392Z,101410.88
2023-02-17T16:40:00.255Z,101409.16
2023-02-17T16:42:03.855Z,101408.50
2023-02-17T16:44:07.978Z,101407.75
2023-02-17T16:46:24.168Z,101408.88
2023-02-17T16:48:29.397Z,101408.31
2023-02-17T16:50:35.328Z,101411.06
2023-02-17T16:52:38.953Z,101403.28
2023-02-17T16:54:42.515Z,101399.91
2023-02-17T16:56:50.833Z,101397.31
2023-02-17T16:58:54.345Z,101399.22
2023-02-17T17:00:58.095Z,101399.22
2023-02-17T17:03:02.134Z,101400.16
2023-02-17T17:05:06.466Z,101400.25
2023-02-17T17:07:16.306Z,101397.59
2023-02-17T17:09:22.445Z,101399.44
2023-02-17T17:11:28.602Z,101396.00
2023-02-17T17:13:33.582Z,101389.84
2023-02-17T17:15:37.057Z,101407.72
2023-02-17T17:17:44.911Z,101401.66
2023-02-17T17:19:48.451Z,101403.44
2023-02-17T17:21:52.011Z,101404.31
2023-02-17T17:23:56.758Z,101391.03
2023-02-17T17:26:02.096Z,101391.97
2023-02-17T17:28:06.459Z,101399.84
2023-02-17T17:30:18.021Z,101398.13
2023-02-17T17:32:22.368Z,101399.00
2023-02-17T17:34:26.351Z,101396.34
2023-02-17T17:36:34.255Z,101401.66
2023-02-17T17:38:38.086Z,101398.25
2023-02-17T17:40:49.659Z,101388.50
2023-02-17T17:42:54.431Z,101387.63
2023-02-17T17:44:58.713Z,101387.63
2023-02-17T17:47:04.365Z,101386.78
2023-02-17T17:49:10.819Z,101380.69
2023-02-17T17:51:16.807Z,101382.50
2023-02-17T17:53:20.443Z,101392.34
2023-02-17T17:55:24.596Z,101381.72
2023-02-17T17:57:28.756Z,101375.47
2023-02-17T17:59:32.838Z,101380.78
2023-02-17T18:01:37.320Z,101378.03
2023-02-17T18:03:43.987Z,101372.59
2023-02-17T18:05:48.096Z,101376.97
2023-02-17T18:07:52.887Z,101373.28
2023-02-17T18:09:57.157Z,101374.13
2023-02-17T18:12:04.406Z,101378.44
2023-02-17T18:14:13.066Z,101364.09
2023-02-17T18:16:17.757Z,101366.66
2023-02-17T18:18:23.615Z,101361.19
2023-02-17T18:20:28.670Z,101362.75
2023-02-17T18:22:32.625Z,101365.34
2023-02-17T18:24:36.185Z,101366.00
2023-02-17T18:26:39.985Z,101359.72
2023-02-17T18:28:43.677Z,101358.78
2023-02-17T18:30:47.740Z,101362.19
2023-02-17T18:32:52.781Z,101350.59
2023-02-17T18:34:59.442Z,101348.91
2023-02-17T18:37:05.261Z,101332.94
2023-02-17T18:39:10.011Z,101341.88
2023-02-17T18:41:19.433Z,101337.53
2023-02-17T18:43:23.619Z,101338.25
2023-02-17T18:45:27.912Z,101335.59
2023-02-17T18:47:32.343Z,101339.97
2023-02-17T18:49:35.937Z,101320.53
2023-02-17T18:51:39.853Z,101330.41
2023-02-17T18:53:44.878Z,101343.78
2023-02-17T18:55:48.910Z,101339.41
2023-02-17T18:57:52.877Z,101339.50
2023-02-17T18:59:56.518Z,101333.53
2023-02-17T19:02:01.139Z,101336.28
2023-02-17T19:04:06.099Z,101342.66
2023-02-17T19:06:10.775Z,101336.69
2023-02-17T19:08:15.070Z,101325.38
2023-02-17T19:10:21.539Z,101327.28
2023-02-17T19:12:25.302Z,101319.41
2023-02-17T19:14:29.025Z,101319.47
2023-02-17T19:16:33.499Z,101316.19
2023-02-17T19:18:37.632Z,101322.53
2023-02-17T19:20:45.504Z,101318.25
2023-02-17T19:22:49.300Z,101317.59
2023-02-17T19:24:55.360Z,101315.13
2023-02-17T19:27:03.177Z,101321.59
2023-02-17T19:29:07.254Z,101326.22
2023-02-17T19:31:12.680Z,101325.50
2023-02-17T19:33:16.646Z,101323.88
2023-02-17T19:35:20.800Z,101315.22
2023-02-17T19:37:26.203Z,101314.47
2023-02-17T19:39:30.418Z,101310.22
2023-02-17T19:41:36.075Z,101305.94
2023-02-17T19:43:42.883Z,101308.69
2023-02-17T19:45:48.486Z,101299.94
2023-02-17T19:47:52.919Z,101314.19
2023-02-17T19:49:56.914Z,101299.41
2023-02-17T19:52:00.908Z,101297.69
2023-02-17T19:54:04.982Z,101305.66
2023-02-17T19:56:12.109Z,101299.66
2023-02-17T19:58:16.928Z,101309.44
2023-02-17T20:00:23.761Z,101300.72
2023-02-17T20:02:28.066Z,101307.84
2023-02-17T20:04:32.425Z,101302.63
2023-02-17T20:06:40.826Z,101299.19
2023-02-17T20:08:45.849Z,101297.50
2023-02-17T20:10:51.360Z,101301.09
2023-02-17T20:12:57.062Z,101296.72
2023-02-17T20:15:01.491Z,101303.94
2023-02-17T20:17:08.605Z,101303.94
2023-02-17T20:19:12.659Z,101298.63
2023-02-17T20:21:18.775Z,101296.00
2023-02-17T20:23:23.668Z,101298.75
2023-02-17T20:25:28.670Z,101302.31
2023-02-17T20:27:32.474Z,101305.91
2023-02-17T20:29:37.288Z,101304.22
2023-02-17T20:31:41.370Z,101306.97
2023-02-17T20:33:46.858Z,101301.75
2023-02-17T20:35:51.267Z,101288.56
2023-02-17T20:37:55.620Z,101297.47
2023-02-17T20:40:00.477Z,101297.56
2023-02-17T20:42:05.271Z,101309.13
2023-02-17T20:44:09.490Z,101304.75
2023-02-17T20:46:16.020Z,101305.63
2023-02-17T20:48:20.670Z,101304.84
2023-02-17T20:50:26.992Z,101319.94
2023-02-17T20:52:31.977Z,101324.41
2023-02-17T20:54:36.932Z,101322.59
2023-02-17T20:56:42.538Z,101318.13
2023-02-17T20:58:47.544Z,101311.88
2023-02-17T21:00:52.365Z,101332.06
2023-02-17T21:02:59.017Z,101310.75
2023-02-17T21:05:03.833Z,101304.50
2023-02-17T21:07:10.751Z,101320.22
2023-02-17T21:09:18.140Z,101317.56
2023-02-17T21:11:22.740Z,101322.78
2023-02-17T21:13:28.986Z,101313.78
2023-02-17T21:15:32.904Z,101312.75
2023-02-17T21:17:37.728Z,101307.34
2023-02-17T21:19:42.080Z,101305.56
2023-02-17T21:21:46.543Z,101295.78
2023-02-17T21:23:51.962Z,101300.16
2023-02-17T21:25:56.506Z,101293.13
2023-02-17T21:28:00.620Z,101295.78
2023-02-17T21:30:06.034Z,101292.19
2023-02-17T21:32:09.834Z,101279.78
2023-02-17T21:34:13.645Z,101285.91
2023-02-17T21:36:20.207Z,101277.00
2023-02-17T21:38:25.077Z,101277.13
2023-02-17T21:40:30.072Z,101276.28
2023-02-17T21:42:51.844Z,101278.06
2023-02-17T21:44:56.833Z,101282.53
2023-02-17T21:47:01.075Z,101283.47
2023-02-17T21:49:06.550Z,101288.78
2023-02-17T21:51:12.699Z,101278.16
2023-02-17T21:53:16.552Z,101280.91
2023-02-17T21:55:20.967Z,101272.94
2023-02-17T21:57:26.556Z,101253.53
2023-02-17T21:59:30.759Z,101267.72
2023-02-17T22:01:34.533Z,101273.97
2023-02-17T22:03:39.373Z,101272.25
2023-02-17T22:05:43.200Z,101265.28
2023-02-17T22:07:49.853Z,101263.56
2023-02-17T22:09:53.986Z,101260.91
2023-02-17T22:11:57.800Z,101266.22
2023-02-17T22:14:06.095Z,101262.78
2023-02-17T22:16:10.226Z,101270.66
2023-02-17T22:18:14.530Z,101248.56
2023-02-17T22:20:19.490Z,101260.91
2023-02-17T22:22:23.497Z,101257.47
2023-02-17T22:24:27.655Z,101251.31
2023-02-17T22:26:32.288Z,101243.47
2023-02-17T22:28:36.225Z,101238.25
2023-02-17T22:30:41.447Z,101224.31
2023-02-17T22:32:45.328Z,101218.25
2023-02-17T22:34:49.125Z,101230.66
2023-02-17T22:36:52.986Z,101230.66
2023-02-17T22:38:57.361Z,101216.56
2023-02-17T22:41:06.669Z,101223.56
2023-02-17T22:43:11.552Z,101234.09
2023-02-17T22:45:15.318Z,101203.94
2023-02-17T22:47:20.316Z,101209.22
2023-02-17T22:49:24.252Z,101206.50
2023-02-17T22:51:30.389Z,101187.06
2023-02-17T22:53:37.159Z,101182.63
2023-02-17T22:55:59.595Z,101174.69
2023-02-17T22:58:23.260Z,101186.03
2023-02-17T23:00:35.363Z,101186.03
2023-02-17T23:03:00.292Z,101187.84
2023-02-17T23:05:19.727Z,101178.91
2023-02-17T23:07:30.813Z,101174.47
2023-02-17T23:09:51.916Z,101169.16
2023-02-17T23:12:00.432Z,101171.63
2023-02-17T23:14:09.016Z,101168.03
2023-02-17T23:16:37.426Z,101169.75
2023-02-17T23:18:44.675Z,101161.78
2023-02-17T23:20:52.397Z,101149.44
2023-02-17T23:22:56.306Z,101137.91
2023-02-17T23:25:00.046Z,101140.56
2023-02-17T23:27:04.735Z,101136.91
2023-02-17T23:29:09.653Z,101134.38
2023-02-17T23:31:13.662Z,101131.81
2023-02-17T23:33:17.787Z,101146.03
2023-02-17T23:35:24.781Z,101139.97
2023-02-17T23:37:28.656Z,101139.22
2023-02-17T23:39:32.640Z,101132.59
2023-02-17T23:41:37.265Z,101119.63
2023-02-17T23:43:41.533Z,101122.53
2023-02-17T23:45:45.357Z,101114.88
2023-02-17T23:47:49.255Z,101126.44
2023-02-17T23:49:52.916Z,101111.47
2023-02-17T23:51:57.931Z,101118.69
2023-02-17T23:54:01.272Z,101112.50
2023-02-17T23:56:07.401Z,101122.38
2023-02-17T23:58:11.487Z,101125.03
